Terminal Aerodrome Forecast
Issued by NWS Greer, SC

Home | Current Version | Previous Version | Text Only | Print | Product List | Glossary On
Versions: 1 2 3 4 5 6 7 8 9 10 11 12 13 14
000
FTUS42 KGSP 240841 AAA
TAFAVL
TAF AMD
KAVL 240841Z 2409/2506 35010KT P6SM BKN150
      TEMPO 2410/2412 5SM BR BKN015
     FM241300 33006KT P6SM FEW050 SCT250=

USA.gov is the U.S. government's official web portal to all federal, state and local government web resources and services.